createdAt,value
2019-03-19T00:02:30.350Z,5.37
2019-03-19T00:06:37.546Z,6.57
2019-03-19T00:10:44.770Z,6.23
2019-03-19T00:14:53.047Z,5.83
2019-03-19T00:19:00.301Z,5.60
2019-03-19T00:23:07.688Z,6.87
2019-03-19T00:27:14.688Z,6.00
2019-03-19T00:31:24.919Z,5.77
2019-03-19T00:35:31.886Z,5.33
2019-03-19T00:39:38.996Z,6.20
2019-03-19T00:43:46.089Z,6.57
2019-03-19T00:47:52.870Z,7.17
2019-03-19T00:51:59.686Z,6.40
2019-03-19T00:56:06.572Z,7.77
2019-03-19T01:00:14.053Z,5.63
2019-03-19T01:04:21.188Z,4.97
2019-03-19T01:08:28.019Z,5.43
2019-03-19T01:12:34.838Z,6.03
2019-03-19T01:16:41.665Z,5.90
2019-03-19T01:20:48.509Z,5.80
2019-03-19T01:24:55.431Z,6.73
2019-03-19T01:29:02.252Z,7.10
2019-03-19T01:33:10.093Z,6.97
2019-03-19T01:37:16.882Z,7.13
2019-03-19T01:41:23.686Z,8.33
2019-03-19T01:45:30.498Z,7.20
2019-03-19T01:49:37.354Z,7.23
2019-03-19T01:53:44.181Z,6.60
2019-03-19T01:57:51.372Z,7.40
2019-03-19T02:01:58.254Z,7.87
2019-03-19T02:06:05.582Z,6.97
2019-03-19T02:10:12.482Z,6.23
2019-03-19T02:14:19.315Z,7.60
2019-03-19T02:18:26.261Z,7.43
2019-03-19T02:22:33.105Z,8.10
2019-03-19T02:26:40.491Z,8.23
2019-03-19T02:30:47.794Z,8.13
2019-03-19T02:34:55.222Z,7.87
2019-03-19T02:39:02.361Z,8.67
2019-03-19T02:43:09.925Z,8.43
2019-03-19T02:47:17.032Z,8.40
2019-03-19T02:51:24.063Z,9.23
2019-03-19T02:55:31.223Z,8.43
2019-03-19T02:59:38.159Z,7.80
2019-03-19T03:03:44.962Z,7.90
2019-03-19T03:07:51.850Z,8.17
2019-03-19T03:11:58.673Z,8.47
2019-03-19T03:16:05.522Z,8.37
2019-03-19T03:20:15.702Z,9.20
2019-03-19T03:24:22.981Z,9.83
2019-03-19T03:28:30.199Z,9.37
2019-03-19T03:32:37.298Z,8.27
2019-03-19T03:36:44.245Z,8.60
2019-03-19T03:40:51.355Z,10.13
2019-03-19T03:44:58.167Z,10.47
2019-03-19T03:49:05.106Z,12.67
2019-03-19T03:53:12.027Z,16.63
2019-03-19T03:57:18.926Z,14.13
2019-03-19T04:01:25.747Z,13.13
2019-03-19T04:05:32.742Z,11.63
2019-03-19T04:09:39.551Z,11.30
2019-03-19T04:13:46.368Z,12.23
2019-03-19T04:17:53.233Z,12.20
2019-03-19T04:22:00.049Z,12.67
2019-03-19T04:26:06.940Z,11.60
2019-03-19T04:30:14.029Z,12.30
2019-03-19T04:34:20.963Z,12.67
2019-03-19T04:38:27.811Z,11.30
2019-03-19T04:42:34.686Z,11.00
2019-03-19T04:46:41.557Z,10.77
2019-03-19T04:50:48.480Z,10.77
2019-03-19T04:54:55.538Z,11.87
2019-03-19T04:59:02.656Z,11.33
2019-03-19T05:03:09.487Z,11.57
2019-03-19T05:07:17.679Z,11.50
2019-03-19T05:11:24.688Z,11.70
2019-03-19T05:15:31.732Z,12.37
2019-03-19T05:19:38.683Z,12.87
2019-03-19T05:23:45.899Z,13.07
2019-03-19T05:27:53.121Z,13.70
2019-03-19T05:32:00.401Z,14.53
2019-03-19T05:36:09.104Z,15.03
2019-03-19T05:40:16.758Z,14.63
2019-03-19T05:44:23.956Z,15.60
2019-03-19T05:48:31.018Z,15.17
2019-03-19T05:52:38.345Z,14.47
2019-03-19T05:56:45.582Z,16.77
2019-03-19T06:00:52.649Z,15.43
2019-03-19T06:04:59.567Z,16.30
2019-03-19T06:09:10.632Z,17.30
2019-03-19T06:13:17.732Z,16.93
2019-03-19T06:17:24.758Z,19.03
2019-03-19T06:21:31.875Z,18.07
2019-03-19T06:25:38.797Z,17.37
2019-03-19T06:29:46.066Z,18.43
2019-03-19T06:33:53.017Z,21.63
2019-03-19T06:38:00.192Z,16.90
2019-03-19T06:42:07.234Z,16.77
2019-03-19T06:46:14.218Z,15.70
2019-03-19T06:50:21.263Z,17.77
2019-03-19T06:54:28.284Z,16.07
2019-03-19T06:58:38.889Z,16.70
2019-03-19T07:02:46.041Z,16.50
2019-03-19T07:06:53.009Z,16.27
2019-03-19T07:11:00.105Z,16.53
2019-03-19T07:15:09.109Z,17.60
2019-03-19T07:19:16.033Z,16.93
2019-03-19T07:23:23.324Z,16.80
2019-03-19T07:27:30.384Z,15.87
2019-03-19T07:31:37.351Z,16.93
2019-03-19T07:35:46.673Z,16.10
2019-03-19T07:39:53.658Z,15.30
2019-03-19T07:44:00.703Z,14.43
2019-03-19T07:48:07.840Z,13.17
2019-03-19T07:52:14.731Z,13.50
2019-03-19T07:56:21.652Z,12.67
2019-03-19T08:00:28.643Z,13.03
2019-03-19T08:04:35.764Z,12.73
2019-03-19T08:08:42.822Z,13.53
2019-03-19T08:12:49.690Z,14.07
2019-03-19T08:16:56.600Z,13.90
2019-03-19T08:21:03.692Z,12.97
2019-03-19T08:25:11.268Z,14.80
2019-03-19T08:29:18.298Z,14.13
2019-03-19T08:33:25.380Z,13.10
2019-03-19T08:37:32.343Z,14.07
2019-03-19T08:41:39.279Z,13.37
2019-03-19T08:45:46.323Z,11.53
2019-03-19T08:49:53.316Z,13.43
2019-03-19T08:54:00.227Z,12.83
2019-03-19T08:58:07.061Z,12.67
2019-03-19T09:02:13.978Z,12.30
2019-03-19T09:06:20.790Z,12.23
2019-03-19T09:10:27.655Z,11.77
2019-03-19T09:14:36.512Z,11.23
2019-03-19T09:18:44.598Z,11.03
2019-03-19T09:22:51.390Z,10.10
2019-03-19T09:26:58.298Z,11.00
2019-03-19T09:31:06.136Z,8.00
2019-03-19T09:35:13.495Z,7.50
2019-03-19T09:39:20.486Z,6.90
2019-03-19T09:43:27.376Z,6.40
2019-03-19T09:47:34.377Z,6.57
2019-03-19T09:51:41.261Z,6.17
2019-03-19T09:55:48.339Z,6.37
2019-03-19T09:59:55.238Z,5.67
2019-03-19T10:04:02.129Z,6.07
2019-03-19T10:08:08.926Z,5.30
2019-03-19T10:12:15.817Z,6.37
2019-03-19T10:16:22.712Z,4.03
2019-03-19T10:20:29.811Z,4.50
2019-03-19T10:24:36.670Z,3.80
2019-03-19T10:28:45.845Z,3.83
2019-03-19T10:32:52.810Z,4.20
2019-03-19T10:36:59.795Z,3.40
2019-03-19T10:41:06.933Z,3.60
2019-03-19T10:45:14.236Z,3.17
2019-03-19T10:49:21.180Z,3.03
2019-03-19T10:53:28.193Z,4.07
2019-03-19T10:57:35.309Z,3.53
2019-03-19T11:01:42.167Z,4.00
2019-03-19T11:05:49.165Z,4.43
2019-03-19T11:09:56.312Z,4.10
2019-03-19T11:14:03.110Z,4.57
2019-03-19T11:18:09.948Z,4.53
2019-03-19T11:22:16.888Z,4.47
2019-03-19T11:26:23.755Z,3.13
2019-03-19T11:30:30.616Z,3.53
2019-03-19T11:34:37.441Z,4.33
2019-03-19T11:38:44.293Z,3.80
2019-03-19T11:42:51.523Z,4.30
2019-03-19T11:46:58.426Z,3.63
2019-03-19T11:51:05.383Z,4.17
2019-03-19T11:55:12.724Z,3.60
2019-03-19T11:59:19.702Z,3.70
2019-03-19T12:03:27.163Z,3.70
2019-03-19T12:12:05.477Z,3.53
2019-03-19T12:16:12.452Z,3.43
2019-03-19T12:20:20.821Z,3.77
2019-03-19T12:24:28.052Z,3.47
2019-03-19T12:28:39.722Z,3.30
2019-03-19T12:32:43.510Z,3.83
2019-03-19T12:36:50.400Z,3.23
2019-03-19T12:40:57.425Z,3.70
2019-03-19T12:45:04.727Z,3.37
2019-03-19T12:49:12.024Z,3.47
2019-03-19T12:53:18.877Z,3.40
2019-03-19T12:57:25.764Z,6.27
2019-03-19T13:01:32.849Z,3.70
2019-03-19T13:05:40.215Z,3.57
2019-03-19T13:09:47.163Z,3.43
2019-03-19T13:13:53.981Z,3.43
2019-03-19T13:18:00.939Z,3.10
2019-03-19T13:22:07.831Z,3.97
2019-03-19T13:26:14.688Z,4.13
2019-03-19T13:30:21.808Z,4.00
2019-03-19T13:34:28.882Z,3.33
2019-03-19T13:38:35.762Z,3.37
2019-03-19T13:42:43.008Z,3.27
2019-03-19T13:46:49.998Z,3.17
2019-03-19T13:50:57.000Z,3.10
2019-03-19T13:55:03.993Z,3.83
2019-03-19T13:59:13.866Z,3.00
2019-03-19T14:03:20.757Z,3.00
2019-03-19T14:07:27.608Z,3.47
2019-03-19T14:11:35.074Z,3.60
2019-03-19T14:15:43.682Z,3.70
2019-03-19T14:19:51.370Z,3.87
2019-03-19T14:23:58.403Z,6.10
2019-03-19T14:28:05.622Z,3.27
2019-03-19T14:32:12.550Z,3.40
2019-03-19T14:36:19.456Z,3.27
2019-03-19T14:40:27.228Z,4.07
2019-03-19T14:44:34.191Z,3.93
2019-03-19T14:48:41.181Z,3.17
2019-03-19T14:52:48.170Z,3.87
2019-03-19T14:56:55.293Z,4.57
2019-03-19T15:01:03.390Z,3.43
2019-03-19T15:05:11.099Z,5.07
2019-03-19T15:09:17.927Z,4.73
2019-03-19T15:13:25.079Z,3.20
2019-03-19T15:17:34.485Z,3.80
2019-03-19T15:21:41.753Z,3.07
2019-03-19T15:25:48.813Z,3.20
2019-03-19T15:29:55.687Z,3.40
2019-03-19T15:34:02.609Z,3.17
2019-03-19T15:38:09.430Z,3.30
2019-03-19T15:42:16.420Z,4.23
2019-03-19T15:46:25.366Z,3.27
2019-03-19T15:50:32.210Z,4.37
2019-03-19T15:54:39.978Z,4.77
2019-03-19T15:58:46.941Z,4.40
2019-03-19T16:02:54.324Z,3.73
2019-03-19T16:07:02.083Z,3.00
2019-03-19T16:11:09.170Z,3.37
2019-03-19T16:15:17.096Z,4.47
2019-03-19T16:19:24.373Z,3.90
2019-03-19T16:23:31.947Z,4.20
2019-03-19T16:27:40.645Z,3.60
2019-03-19T16:31:51.178Z,3.53
2019-03-19T16:35:58.221Z,4.47
2019-03-19T16:40:08.999Z,3.90
2019-03-19T16:44:15.868Z,3.50
2019-03-19T16:48:23.359Z,3.60
2019-03-19T16:52:34.170Z,3.70
2019-03-19T16:56:42.289Z,3.17
2019-03-19T17:00:50.753Z,3.13
2019-03-19T17:04:59.181Z,3.40
2019-03-19T17:09:09.442Z,6.70
2019-03-19T17:13:17.845Z,3.93
2019-03-19T17:22:55.342Z,4.10
2019-03-19T17:27:02.236Z,3.70
2019-03-19T17:31:10.205Z,4.10
2019-03-19T17:35:17.182Z,3.83
2019-03-19T17:39:25.387Z,3.40
2019-03-19T17:43:32.925Z,3.67
2019-03-19T17:47:40.035Z,4.27
2019-03-19T17:51:46.895Z,4.83
2019-03-19T17:55:53.940Z,4.53
2019-03-19T18:00:00.839Z,5.03
2019-03-19T18:04:07.896Z,18.63
2019-03-19T18:08:14.863Z,6.23
2019-03-19T18:12:21.788Z,7.33
2019-03-19T18:16:28.885Z,7.40
2019-03-19T18:20:35.942Z,5.10
2019-03-19T18:24:46.199Z,5.50
2019-03-19T18:28:53.158Z,4.40
2019-03-19T18:33:00.751Z,5.00
2019-03-19T18:37:07.886Z,5.40
2019-03-19T18:41:14.974Z,5.27
2019-03-19T18:45:22.373Z,8.20
2019-03-19T18:49:29.628Z,5.10
2019-03-19T18:53:36.712Z,5.37
2019-03-19T18:57:43.701Z,4.67
2019-03-19T19:01:51.652Z,4.43
2019-03-19T19:05:58.807Z,5.57
2019-03-19T19:10:06.451Z,4.63
2019-03-19T19:14:13.530Z,4.70
2019-03-19T19:18:20.382Z,4.87
2019-03-19T19:22:27.260Z,5.70
2019-03-19T19:26:34.359Z,5.27
2019-03-19T19:30:41.416Z,6.37
2019-03-19T19:34:48.643Z,5.40
2019-03-19T19:38:55.611Z,6.50
2019-03-19T19:43:02.491Z,6.10
2019-03-19T19:47:09.501Z,6.00
2019-03-19T19:51:16.553Z,6.27
2019-03-19T19:55:23.902Z,7.60
2019-03-19T19:59:30.983Z,7.03
2019-03-19T20:03:38.063Z,6.40
2019-03-19T20:07:45.072Z,6.33
2019-03-19T20:11:51.998Z,5.93
2019-03-19T20:15:59.013Z,6.20
2019-03-19T20:20:08.351Z,6.87
2019-03-19T20:24:16.233Z,7.73
2019-03-19T20:28:25.089Z,7.07
2019-03-19T20:32:32.445Z,7.30
2019-03-19T20:36:39.411Z,8.83
2019-03-19T20:40:49.458Z,6.20
2019-03-19T20:44:57.386Z,7.93
2019-03-19T20:49:05.416Z,6.73
2019-03-19T20:53:12.455Z,7.47
2019-03-19T20:57:19.423Z,6.17
2019-03-19T21:01:26.496Z,6.23
2019-03-19T21:05:33.602Z,6.17
2019-03-19T21:09:40.679Z,5.23
2019-03-19T21:13:47.780Z,5.37
2019-03-19T21:17:54.810Z,4.33
2019-03-19T21:22:02.549Z,4.90
2019-03-19T21:26:09.988Z,3.70
2019-03-19T21:30:18.010Z,4.87
2019-03-19T21:34:25.549Z,3.70
2019-03-19T21:38:32.489Z,3.97
2019-03-19T21:42:39.735Z,4.30
2019-03-19T21:46:47.919Z,6.37
2019-03-19T21:50:55.102Z,5.47
2019-03-19T21:55:03.513Z,5.53
2019-03-19T21:59:10.946Z,5.50
2019-03-19T22:03:17.907Z,7.13
2019-03-19T22:07:25.104Z,10.77
2019-03-19T22:11:32.122Z,7.53
2019-03-19T22:15:39.328Z,7.70
2019-03-19T22:19:46.477Z,7.27
2019-03-19T22:23:53.359Z,10.30
2019-03-19T22:28:00.558Z,9.97
2019-03-19T22:32:07.571Z,9.67
2019-03-19T22:36:16.123Z,8.63
2019-03-19T22:40:23.281Z,8.87
2019-03-19T22:44:30.256Z,9.20
2019-03-19T22:48:37.127Z,8.10
2019-03-19T22:52:44.121Z,11.30
2019-03-19T22:56:51.082Z,7.97
2019-03-19T23:00:58.069Z,7.70
2019-03-19T23:05:05.747Z,8.37
2019-03-19T23:09:13.696Z,8.87
2019-03-19T23:13:20.533Z,8.87
2019-03-19T23:17:27.413Z,8.20
2019-03-19T23:21:34.310Z,9.80
2019-03-19T23:25:41.158Z,9.83
2019-03-19T23:29:48.301Z,10.13
2019-03-19T23:33:55.285Z,9.00
2019-03-19T23:38:02.313Z,8.87
2019-03-19T23:42:09.428Z,9.10
2019-03-19T23:46:19.865Z,10.10
2019-03-19T23:50:26.833Z,10.07
2019-03-19T23:54:33.677Z,9.90
2019-03-19T23:58:41.765Z,9.17
